This is the latest recevied weather packets stored in our database for station/object GW1477. If no packets are shown the sender has not sent any weather packets the latest 10 day(s).
| Time | Temp. | Humidity | Pressure | Rain* | Wind** | Luminosity | Snow |
|---|---|---|---|---|---|---|---|
| 1778003485 | 22.22° C | 37% | - | 0 mm | - | - | - |
| 1778003125 | 21.67° C | 38% | - | 0 mm | - | - | - |
| 1778000979 | 21.67° C | 39% | - | 0 mm | - | - | - |
| 1778000609 | 21.67° C | 38% | - | 0 mm | - | - | - |
| 1777999512 | 21.11° C | 39% | - | 0 mm | - | - | - |
| 1777998439 | 21.11° C | 40% | - | 0 mm | - | - | - |
| 1777998108 | 21.67° C | 40% | - | 0 mm | - | - | - |
| 1777997735 | 21.11° C | 40% | - | 0 mm | - | - | - |
| 1777993411 | 18.33° C | 49% | - | 0 mm | - | - | - |
| 1777992708 | 18.33° C | 48% | - | 0 mm | - | - | - |
| 1777991952 | 18.33° C | 49% | - | 0 mm | - | - | - |
| 1777990542 | 17.22° C | 52% | - | 0 mm | - | - | - |
| 1777988373 | 17.22° C | 53% | - | 0 mm | - | - | - |
| 1777987652 | 16.11° C | 60% | - | 0 mm | - | - | - |
| 1777981166 | 5.56° C | 97% | - | 0 mm | - | - | - |
| 1777980096 | 4.44° C | 97% | - | 0 mm | - | - | - |
| 1777972872 | 3.33° C | 96% | - | 0 mm | - | - | - |
| 1777972173 | 3.89° C | 96% | - | 0 mm | - | - | - |
| 1777971810 | 3.89° C | 96% | - | 0 mm | - | - | - |
| 1777970370 | 3.89° C | 96% | - | 0 mm | - | - | - |
| 1777967849 | 3.89° C | 95% | - | 0 mm | - | - | - |
| 1777967471 | 3.89° C | 95% | - | 0 mm | - | - | - |
| 1777966780 | 3.89° C | 95% | - | 0 mm | - | - | - |
| 1777959570 | 5.56° C | 93% | - | 0 mm | - | - | - |
| 1777959189 | 5.56° C | 92% | - | 0 mm | - | - | - |
* Rain since midnight (hover to see other rain measurements)
** Current wind speed in m/s (hover to see current wind gust speed)